Time;durP1;ratioP1;P1;durP2;ratioP2;P2;SDS_P1;SDS_P2;PMS_P1;PMS_P2;Temp;Humidity;BMP_temperature;BMP_pressure;BME280_temperature;BME280_humidity;BME280_pressure;Samples;Min_cycle;Max_cycle;Signal;HPM_P1;HPM_P2
2024/02/09 00:00:10;;;;;;;20.75;7.68;;;8.40;99.90;;;;;;5037772;28;20513;-72
2024/02/09 00:02:37;;;;;;;29.30;7.90;;;8.50;99.90;;;;;;5036618;28;20037;-72
2024/02/09 00:05:05;;;;;;;26.42;6.75;;;8.40;99.90;;;;;;5038356;28;20544;-73
2024/02/09 00:07:31;;;;;;;26.80;7.60;;;8.50;99.90;;;;;;5042390;28;20548;-74
2024/02/09 00:09:58;;;;;;;23.73;6.85;;;8.60;99.90;;;;;;5039096;28;20042;-73
2024/02/09 00:12:24;;;;;;;22.08;6.90;;;8.70;99.90;;;;;;5038695;28;20102;-75
2024/02/09 00:14:50;;;;;;;22.88;6.85;;;8.80;99.90;;;;;;5040168;28;20029;-74
2024/02/09 00:17:16;;;;;;;28.48;7.70;;;8.80;99.90;;;;;;5041512;28;20486;-72
2024/02/09 00:19:42;;;;;;;27.42;6.75;;;8.80;99.90;;;;;;5032257;28;20036;-72
2024/02/09 00:22:07;;;;;;;23.30;6.95;;;8.80;99.90;;;;;;5047570;28;20037;-72
2024/02/09 00:24:33;;;;;;;26.27;6.97;;;8.90;99.90;;;;;;5028141;28;20032;-74
2024/02/09 00:27:00;;;;;;;25.55;6.72;;;8.90;99.90;;;;;;5028304;28;20109;-74
2024/02/09 00:29:26;;;;;;;20.00;6.32;;;8.90;99.90;;;;;;5046843;28;20052;-71
2024/02/09 00:31:52;;;;;;;26.95;7.28;;;9.00;99.90;;;;;;5052055;28;20060;-72
2024/02/09 00:34:18;;;;;;;25.92;6.38;;;9.00;99.90;;;;;;5040784;28;20041;-73
2024/02/09 00:36:47;;;;;;;22.98;6.65;;;9.00;99.90;;;;;;5034492;28;20037;-73
2024/02/09 00:39:14;;;;;;;22.70;6.50;;;9.10;99.90;;;;;;5049541;28;20053;-76
2024/02/09 00:41:40;;;;;;;24.05;6.13;;;9.10;99.90;;;;;;5026145;28;20439;-74
2024/02/09 00:44:05;;;;;;;26.92;6.38;;;9.10;99.90;;;;;;5027521;28;20179;-71
2024/02/09 00:46:32;;;;;;;28.45;6.82;;;9.10;99.90;;;;;;5040457;28;20029;-74
2024/02/09 00:49:02;;;;;;;31.75;6.75;;;9.10;99.90;;;;;;5041895;28;20033;-71
2024/02/09 00:51:31;;;;;;;29.58;7.57;;;9.10;99.90;;;;;;5027143;28;20139;-72
2024/02/09 00:53:57;;;;;;;24.25;6.25;;;9.10;99.90;;;;;;5040226;28;20899;-71
2024/02/09 00:56:23;;;;;;;18.60;6.50;;;9.10;99.90;;;;;;5038301;28;20033;-71
2024/02/09 00:58:49;;;;;;;22.33;6.18;;;9.10;99.90;;;;;;5022322;28;20056;-71
2024/02/09 01:01:15;;;;;;;22.15;5.80;;;9.10;99.90;;;;;;5043577;28;20036;-72
2024/02/09 01:03:40;;;;;;;20.90;5.88;;;9.10;99.90;;;;;;5026491;28;20056;-72
2024/02/09 01:06:07;;;;;;;17.42;5.80;;;9.20;99.90;;;;;;5029676;28;20472;-74
2024/02/09 01:08:33;;;;;;;21.55;6.95;;;9.20;99.90;;;;;;5024250;28;20461;-72
2024/02/09 01:10:58;;;;;;;26.83;6.38;;;9.20;99.90;;;;;;5042756;28;20033;-72
2024/02/09 02:46:35;;;;;;;26.85;5.63;;;9.50;99.90;;;;;;5041570;28;20033;-72
2024/02/09 03:05:27;;;;;;;16.85;4.10;;;9.60;99.90;;;;;;5036842;28;20032;-74
2024/02/09 03:07:56;;;;;;;18.83;4.18;;;9.50;99.90;;;;;;5048204;28;20029;-73
2024/02/09 03:10:22;;;;;;;13.02;4.03;;;9.50;99.90;;;;;;5039961;28;20033;-70
2024/02/09 03:12:48;;;;;;;16.77;4.45;;;9.60;99.90;;;;;;5037964;28;20037;-72
2024/02/09 03:15:15;;;;;;;11.43;3.97;;;9.50;99.90;;;;;;5030526;28;20030;-72
2024/02/09 03:17:41;;;;;;;11.52;3.50;;;9.50;99.90;;;;;;5029372;28;20144;-71
2024/02/09 03:20:08;;;;;;;13.55;4.45;;;9.50;99.90;;;;;;5024592;28;20152;-74
2024/02/09 03:22:34;;;;;;;16.02;3.65;;;9.50;99.90;;;;;;5029722;28;20031;-72
2024/02/09 03:25:04;;;;;;;17.10;4.43;;;9.50;99.90;;;;;;5026659;28;20034;-72
2024/02/09 03:27:34;;;;;;;10.32;4.10;;;9.50;99.90;;;;;;5040754;28;20041;-74
2024/02/09 03:30:01;;;;;;;13.60;4.20;;;9.60;99.90;;;;;;5021581;28;20402;-72
2024/02/09 03:32:28;;;;;;;17.75;4.32;;;9.60;99.90;;;;;;5038605;28;20551;-72
2024/02/09 03:34:55;;;;;;;15.15;3.92;;;9.60;99.90;;;;;;5027078;28;20553;-73
2024/02/09 03:37:27;;;;;;;15.35;4.55;;;9.60;99.90;;;;;;5042327;28;20399;-73
2024/02/09 03:40:02;;;;;;;9.07;3.72;;;9.60;99.90;;;;;;5040125;28;20067;-69
2024/02/09 03:42:28;;;;;;;20.92;4.20;;;9.60;99.90;;;;;;5028120;28;20071;-76
2024/02/09 03:44:54;;;;;;;15.13;4.18;;;9.60;99.90;;;;;;5045323;28;20405;-72
2024/02/09 03:47:22;;;;;;;14.00;3.17;;;9.60;99.90;;;;;;5047469;28;20028;-72
2024/02/09 03:49:49;;;;;;;11.48;3.55;;;9.60;99.90;;;;;;5047436;28;20037;-73
2024/02/09 03:52:15;;;;;;;19.52;3.53;;;9.60;99.90;;;;;;5048068;28;20041;-73
2024/02/09 03:54:41;;;;;;;14.63;3.30;;;9.60;99.90;;;;;;5039759;28;20033;-75
2024/02/09 03:57:07;;;;;;;13.35;3.20;;;9.60;99.90;;;;;;5028881;28;20036;-73
2024/02/09 03:59:32;;;;;;;20.77;2.63;;;9.60;99.90;;;;;;5029353;28;20501;-74
2024/02/09 04:02:06;;;;;;;15.35;3.13;;;9.60;99.90;;;;;;5040535;28;20033;-72
2024/02/09 04:04:32;;;;;;;9.90;2.97;;;9.60;99.90;;;;;;5029097;28;20078;-72
2024/02/09 04:06:58;;;;;;;11.25;2.85;;;9.60;99.90;;;;;;5030892;28;20041;-72
2024/02/09 04:09:24;;;;;;;9.57;2.78;;;9.60;99.90;;;;;;5024934;28;20504;-76
2024/02/09 04:11:49;;;;;;;14.35;3.47;;;9.60;99.90;;;;;;5028486;28;20037;-72
2024/02/09 04:14:16;;;;;;;16.73;3.13;;;9.60;99.90;;;;;;5029606;28;20041;-72
2024/02/09 04:16:42;;;;;;;8.98;2.83;;;9.60;99.90;;;;;;5042092;28;20032;-72
2024/02/09 04:19:08;;;;;;;7.50;3.03;;;9.60;99.90;;;;;;5038924;28;20621;-73
2024/02/09 04:21:34;;;;;;;19.42;4.63;;;9.60;99.90;;;;;;5043387;28;20025;-74
2024/02/09 04:23:59;;;;;;;7.55;2.70;;;9.70;99.90;;;;;;5028189;28;20032;-72
2024/02/09 04:26:25;;;;;;;15.55;3.15;;;9.60;99.90;;;;;;5029648;28;20497;-74
2024/02/09 04:28:53;;;;;;;12.82;2.53;;;9.60;99.90;;;;;;5030119;28;20069;-73
2024/02/09 04:31:19;;;;;;;7.43;2.53;;;9.60;99.90;;;;;;5028240;28;20025;-71
2024/02/09 04:33:44;;;;;;;6.80;2.15;;;9.70;99.90;;;;;;5044266;28;20037;-72
2024/02/09 04:36:10;;;;;;;6.90;2.72;;;9.70;99.90;;;;;;5038615;28;20037;-74
2024/02/09 04:38:40;;;;;;;6.63;2.17;;;9.70;99.90;;;;;;5049413;28;20029;-74
2024/02/09 04:41:06;;;;;;;9.70;2.28;;;9.70;99.90;;;;;;5050311;28;20573;-77
2024/02/09 04:43:32;;;;;;;10.25;2.22;;;9.70;99.90;;;;;;5034993;28;20025;-71
2024/02/09 04:45:58;;;;;;;6.13;2.03;;;9.70;99.90;;;;;;5039436;28;20110;-72
2024/02/09 04:48:23;;;;;;;5.95;2.85;;;9.70;99.90;;;;;;5040077;28;20520;-73
2024/02/09 04:50:49;;;;;;;7.80;2.10;;;9.70;99.90;;;;;;5040322;28;20033;-71
2024/02/09 04:53:15;;;;;;;9.40;1.92;;;9.70;99.90;;;;;;5043316;28;20044;-72
2024/02/09 04:55:41;;;;;;;6.85;2.15;;;9.70;99.90;;;;;;5036972;28;20786;-75
2024/02/09 04:58:07;;;;;;;7.18;2.00;;;9.70;99.90;;;;;;5041867;28;20123;-71
2024/02/09 05:00:33;;;;;;;5.93;1.70;;;9.70;99.90;;;;;;5039722;28;20785;-71
2024/02/09 05:02:59;;;;;;;5.13;1.58;;;9.70;99.90;;;;;;5039684;28;20037;-74
2024/02/09 05:05:26;;;;;;;9.05;1.58;;;9.70;99.90;;;;;;5037710;28;20044;-72
2024/02/09 05:07:53;;;;;;;8.68;2.03;;;9.70;99.90;;;;;;5044246;28;20112;-73
2024/02/09 05:10:20;;;;;;;6.22;1.80;;;9.70;99.90;;;;;;5035462;28;20811;-72
2024/02/09 05:12:46;;;;;;;8.07;1.67;;;9.70;99.90;;;;;;5038822;28;20045;-75
2024/02/09 05:15:12;;;;;;;3.95;1.55;;;9.70;99.90;;;;;;5039822;28;20045;-72
2024/02/09 05:17:39;;;;;;;6.80;2.45;;;9.70;99.90;;;;;;5037765;28;21354;-71
2024/02/09 05:20:05;;;;;;;6.25;2.03;;;9.70;99.90;;;;;;5037931;28;20513;-71
2024/02/09 05:22:31;;;;;;;6.78;2.00;;;9.70;99.90;;;;;;5039602;28;20044;-73
2024/02/09 05:24:57;;;;;;;7.13;2.17;;;9.70;99.90;;;;;;5037202;28;20033;-74
2024/02/09 05:27:22;;;;;;;9.43;1.90;;;9.70;99.90;;;;;;5040266;28;20041;-69
2024/02/09 05:29:48;;;;;;;7.30;1.98;;;9.70;99.90;;;;;;5054579;28;20106;-76
2024/02/09 05:32:13;;;;;;;6.65;1.90;;;9.70;99.90;;;;;;5042089;28;20044;-74
2024/02/09 05:34:45;;;;;;;7.70;1.60;;;9.70;99.90;;;;;;5039351;28;20416;-73
2024/02/09 05:37:12;;;;;;;8.98;2.50;;;9.60;99.90;;;;;;5043984;28;20042;-74
2024/02/09 05:39:42;;;;;;;8.77;1.95;;;9.60;99.90;;;;;;5043524;28;20045;-71
2024/02/09 05:42:08;;;;;;;4.35;1.70;;;9.60;99.90;;;;;;5041181;28;20049;-72
2024/02/09 05:44:34;;;;;;;3.25;1.67;;;9.60;99.90;;;;;;5042764;28;20044;-72
2024/02/09 05:47:00;;;;;;;6.97;2.40;;;9.60;99.90;;;;;;5039701;28;20120;-75
2024/02/09 05:49:26;;;;;;;10.13;1.95;;;9.60;99.90;;;;;;5040827;28;20025;-74
2024/02/09 05:51:52;;;;;;;5.07;1.95;;;9.70;99.90;;;;;;5038271;28;20136;-73
2024/02/09 05:54:18;;;;;;;5.85;1.63;;;9.60;99.90;;;;;;5044818;28;20056;-72
2024/02/09 05:56:46;;;;;;;7.75;1.90;;;9.70;99.90;;;;;;5039247;28;20690;-72
2024/02/09 05:59:14;;;;;;;7.88;1.70;;;9.70;99.90;;;;;;5040629;28;20029;-72
2024/02/09 06:01:39;;;;;;;6.50;1.70;;;9.70;99.90;;;;;;5048664;28;20460;-71
2024/02/09 06:04:05;;;;;;;9.75;2.28;;;9.70;99.90;;;;;;5049345;28;20045;-75
2024/02/09 06:06:30;;;;;;;12.05;2.92;;;9.60;99.90;;;;;;5039858;28;20116;-73
2024/02/09 06:08:56;;;;;;;8.95;2.17;;;9.70;99.90;;;;;;5047929;28;20044;-74
2024/02/09 06:11:21;;;;;;;7.65;2.03;;;9.70;99.90;;;;;;5048842;28;20029;-72
2024/02/09 06:13:47;;;;;;;4.93;1.80;;;9.70;99.90;;;;;;5051038;28;20017;-72
2024/02/09 06:16:20;;;;;;;7.22;1.38;;;9.70;99.90;;;;;;5056387;28;20056;-73
2024/02/09 06:18:46;;;;;;;4.93;2.03;;;9.70;99.90;;;;;;5050404;28;20120;-70
2024/02/09 06:21:16;;;;;;;4.90;1.45;;;9.70;99.90;;;;;;5035686;28;20112;-75
2024/02/09 06:23:44;;;;;;;5.97;1.67;;;9.70;99.90;;;;;;5045920;28;20045;-73
2024/02/09 06:26:09;;;;;;;10.40;1.88;;;9.70;99.90;;;;;;5048498;28;20034;-72
2024/02/09 06:28:35;;;;;;;7.43;3.40;;;9.70;99.90;;;;;;5048243;28;20382;-74
2024/02/09 06:31:01;;;;;;;8.10;1.67;;;9.70;99.90;;;;;;5042222;28;20096;-73
2024/02/09 06:33:26;;;;;;;6.43;1.55;;;9.70;99.90;;;;;;5046551;28;20118;-73
2024/02/09 06:35:52;;;;;;;4.07;2.25;;;9.70;99.90;;;;;;5044887;28;20071;-74
2024/02/09 06:38:17;;;;;;;7.30;1.80;;;9.70;99.90;;;;;;5040975;28;20112;-74
2024/02/09 06:40:43;;;;;;;6.25;1.95;;;9.60;99.90;;;;;;5043388;28;20033;-73
2024/02/09 06:43:09;;;;;;;5.72;1.70;;;9.60;99.90;;;;;;5045799;28;20062;-72
2024/02/09 06:45:35;;;;;;;9.55;2.08;;;9.60;99.90;;;;;;5044529;28;20038;-74
2024/02/09 06:48:03;;;;;;;6.60;2.03;;;9.60;99.90;;;;;;5047828;28;20118;-72
2024/02/09 06:50:29;;;;;;;11.48;1.65;;;9.60;99.90;;;;;;5048753;28;20517;-72
2024/02/09 06:52:55;;;;;;;11.02;1.58;;;9.60;99.90;;;;;;5045166;28;20102;-72
2024/02/09 06:55:22;;;;;;;7.47;1.83;;;9.70;99.90;;;;;;5060403;28;20025;-71
2024/02/09 06:57:48;;;;;;;5.18;1.63;;;9.70;99.90;;;;;;5067073;28;20039;-71
2024/02/09 07:00:15;;;;;;;8.82;1.98;;;9.70;99.90;;;;;;5066654;28;20041;-71
2024/02/09 07:02:42;;;;;;;13.50;1.98;;;9.70;99.90;;;;;;5053806;28;20797;-73
2024/02/09 07:05:10;;;;;;;11.10;2.20;;;9.70;99.90;;;;;;5062634;28;20045;-74
2024/02/09 07:07:44;;;;;;;6.50;1.40;;;9.70;99.90;;;;;;5067628;28;20035;-73
2024/02/09 07:10:13;;;;;;;10.73;2.08;;;9.80;99.90;;;;;;5061175;28;20048;-74
2024/02/09 07:12:43;;;;;;;4.07;1.50;;;9.70;99.90;;;;;;5059206;28;20088;-72
2024/02/09 07:15:09;;;;;;;3.60;1.25;;;9.70;99.90;;;;;;5048203;28;20286;-73
2024/02/09 07:17:35;;;;;;;6.18;2.55;;;9.70;99.90;;;;;;5065543;28;20045;-72
2024/02/09 07:20:03;;;;;;;5.03;1.48;;;9.70;99.90;;;;;;5063215;28;20074;-74
2024/02/09 07:22:29;;;;;;;5.57;1.35;;;9.80;99.90;;;;;;5043543;28;20030;-74
2024/02/09 07:24:55;;;;;;;8.73;2.22;;;9.80;99.90;;;;;;5033767;28;20033;-71
2024/02/09 07:27:21;;;;;;;7.72;1.60;;;9.80;99.90;;;;;;5049220;28;20108;-74
2024/02/09 07:29:46;;;;;;;10.32;1.48;;;9.80;99.90;;;;;;5052866;28;20072;-72
2024/02/09 07:32:13;;;;;;;7.60;2.00;;;9.80;99.90;;;;;;5038157;28;20049;-73
2024/02/09 07:34:38;;;;;;;5.57;1.65;;;9.80;99.90;;;;;;5033234;28;20044;-73
2024/02/09 07:37:04;;;;;;;10.98;2.35;;;9.80;99.90;;;;;;5034032;28;20037;-72
2024/02/09 07:39:32;;;;;;;6.68;1.30;;;9.80;99.90;;;;;;5052463;28;20032;-73
2024/02/09 07:41:58;;;;;;;8.63;2.35;;;9.80;99.90;;;;;;5062238;28;20036;-73
2024/02/09 07:44:24;;;;;;;4.40;1.50;;;9.80;99.90;;;;;;5047196;28;20079;-72
2024/02/09 07:46:50;;;;;;;7.35;2.25;;;9.80;99.90;;;;;;5050469;28;20086;-73
2024/02/09 07:49:16;;;;;;;7.38;2.05;;;9.90;99.90;;;;;;5048769;28;20539;-73
2024/02/09 07:51:43;;;;;;;7.78;2.45;;;9.90;99.90;;;;;;5067378;28;20037;-75
2024/02/09 07:54:09;;;;;;;12.98;2.75;;;9.90;99.90;;;;;;5051904;28;20045;-72
2024/02/09 07:56:34;;;;;;;5.60;1.30;;;9.90;99.90;;;;;;5046328;28;20473;-72
2024/02/09 07:59:00;;;;;;;6.00;2.13;;;9.90;99.90;;;;;;5025097;28;20053;-73
2024/02/09 08:01:25;;;;;;;8.35;1.63;;;9.90;99.90;;;;;;5024018;28;20044;-73
2024/02/09 08:03:56;;;;;;;7.95;1.35;;;9.90;99.90;;;;;;5039944;28;20036;-73
2024/02/09 08:06:21;;;;;;;;;;;9.90;99.90;;;;;;5026316;28;20029;-72
2024/02/09 08:08:52;;;;;;;6.40;1.85;;;9.90;99.90;;;;;;5028842;28;19942;-73
2024/02/09 08:11:19;;;;;;;8.82;2.28;;;9.90;99.90;;;;;;5042744;28;20064;-74
2024/02/09 08:13:45;;;;;;;11.40;1.63;;;10.00;99.90;;;;;;5044210;28;20092;-73
2024/02/09 08:16:11;;;;;;;6.88;2.10;;;10.00;99.90;;;;;;5042807;28;20557;-73
2024/02/09 08:18:36;;;;;;;4.00;1.55;;;10.00;99.90;;;;;;5040647;28;20033;-73
2024/02/09 08:21:02;;;;;;;3.85;1.50;;;10.10;99.90;;;;;;5047220;28;21237;-74
2024/02/09 08:23:29;;;;;;;6.63;1.60;;;10.10;99.90;;;;;;5028066;28;20470;-75
2024/02/09 08:25:55;;;;;;;8.32;2.22;;;10.20;99.90;;;;;;5029571;28;20132;-72
2024/02/09 08:28:20;;;;;;;11.93;1.35;;;10.20;99.90;;;;;;5032600;28;20446;-73
2024/02/09 08:30:46;;;;;;;10.20;2.13;;;10.20;99.90;;;;;;5055453;28;20025;-76
2024/02/09 08:33:12;;;;;;;7.63;1.33;;;10.20;99.90;;;;;;5054140;28;20414;-73
2024/02/09 08:35:38;;;;;;;7.38;1.77;;;10.30;99.90;;;;;;5035378;28;20119;-73
2024/02/09 08:38:03;;;;;;;7.18;1.88;;;10.30;99.90;;;;;;5031154;28;20127;-73
2024/02/09 08:40:29;;;;;;;8.55;2.25;;;10.30;99.90;;;;;;5046856;28;20063;-73
2024/02/09 08:42:54;;;;;;;12.95;1.40;;;10.30;99.90;;;;;;5072970;28;20574;-73
2024/02/09 08:45:20;;;;;;;13.25;2.28;;;10.40;99.90;;;;;;5066956;28;20448;-72
2024/02/09 08:47:45;;;;;;;4.72;1.95;;;10.40;99.90;;;;;;5067260;28;20032;-73
2024/02/09 08:50:11;;;;;;;10.85;1.60;;;10.40;99.90;;;;;;5049126;28;20377;-73
2024/02/09 08:52:36;;;;;;;10.25;1.55;;;10.40;99.90;;;;;;5063702;28;20044;-72
2024/02/09 08:55:02;;;;;;;4.57;1.38;;;10.40;99.90;;;;;;5064114;28;20044;-72
2024/02/09 08:57:28;;;;;;;7.03;1.85;;;10.40;99.90;;;;;;5065677;28;20823;-75
2024/02/09 08:59:53;;;;;;;5.40;1.55;;;10.40;99.90;;;;;;5066651;28;20033;-75
2024/02/09 09:02:19;;;;;;;10.00;1.80;;;10.40;99.90;;;;;;5047518;28;20033;-72
2024/02/09 09:04:44;;;;;;;5.07;1.17;;;10.50;99.90;;;;;;5049115;28;20029;-72
2024/02/09 09:07:10;;;;;;;4.20;1.38;;;10.60;99.90;;;;;;5047523;28;20033;-73
2024/02/09 09:09:36;;;;;;;7.15;2.15;;;10.60;99.90;;;;;;5065080;28;20085;-73
2024/02/09 09:12:04;;;;;;;6.15;1.10;;;10.60;99.90;;;;;;5049778;28;20055;-72
2024/02/09 09:14:32;;;;;;;4.80;1.40;;;10.60;99.90;;;;;;5066151;28;20033;-74
2024/02/09 09:16:58;;;;;;;3.97;1.23;;;10.60;99.90;;;;;;5067557;28;20033;-73
2024/02/09 09:19:23;;;;;;;5.43;1.60;;;10.60;99.90;;;;;;5065581;28;20041;-72
2024/02/09 09:21:49;;;;;;;4.90;1.42;;;10.60;99.90;;;;;;5049296;28;20063;-75
2024/02/09 09:24:15;;;;;;;3.63;1.40;;;10.60;99.90;;;;;;5066506;28;20535;-76
2024/02/09 09:26:42;;;;;;;5.70;1.67;;;10.60;99.90;;;;;;5048432;28;20036;-75
2024/02/09 09:29:08;;;;;;;11.88;1.70;;;10.70;99.90;;;;;;5049542;28;20047;-72
2024/02/09 09:31:33;;;;;;;6.55;1.35;;;10.70;99.90;;;;;;5051401;28;20438;-72
2024/02/09 09:33:59;;;;;;;4.72;2.00;;;10.80;99.90;;;;;;5071498;28;20032;-73
2024/02/09 09:36:31;;;;;;;7.55;1.50;;;10.80;99.90;;;;;;5066533;28;20060;-76
2024/02/09 09:38:57;;;;;;;8.57;1.27;;;10.80;99.90;;;;;;5064077;28;20025;-73
2024/02/09 09:41:23;;;;;;;9.15;1.38;;;10.80;99.90;;;;;;5063478;28;20029;-73
2024/02/09 09:43:50;;;;;;;10.85;2.10;;;10.80;99.90;;;;;;5048783;28;20086;-73
2024/02/09 09:46:18;;;;;;;8.05;2.20;;;10.80;99.90;;;;;;5066587;28;20044;-74
2024/02/09 09:48:44;;;;;;;8.57;1.45;;;10.80;99.90;;;;;;5047561;28;20043;-75
2024/02/09 09:51:11;;;;;;;15.00;1.92;;;10.80;99.90;;;;;;5063434;28;20028;-73
2024/02/09 09:53:42;;;;;;;4.93;1.58;;;10.90;99.90;;;;;;5061353;28;20113;-74
2024/02/09 09:56:09;;;;;;;7.70;1.98;;;11.00;99.90;;;;;;5048267;28;20041;-74
2024/02/09 09:58:35;;;;;;;6.03;1.70;;;11.00;99.90;;;;;;5063870;28;20035;-77
2024/02/09 10:01:11;;;;;;;8.35;1.70;;;10.90;99.90;;;;;;5044019;28;20036;-73
2024/02/09 10:03:38;;;;;;;8.15;1.50;;;10.90;99.90;;;;;;5034205;28;20033;-73
2024/02/09 10:06:04;;;;;;;9.40;2.28;;;10.90;99.90;;;;;;5066802;28;20070;-74
2024/02/09 10:08:31;;;;;;;4.22;1.15;;;10.90;99.90;;;;;;5045697;28;20576;-74
2024/02/09 10:10:57;;;;;;;9.05;1.40;;;10.90;99.90;;;;;;5047531;28;20033;-72
2024/02/09 10:13:23;;;;;;;9.15;1.50;;;10.90;99.90;;;;;;5047612;28;20110;-71
2024/02/09 10:15:51;;;;;;;3.40;1.50;;;10.90;99.90;;;;;;5052013;28;20515;-77
2024/02/09 10:18:17;;;;;;;6.03;2.10;;;11.00;99.90;;;;;;5070132;28;20037;-72
2024/02/09 10:20:46;;;;;;;8.10;1.48;;;11.00;99.90;;;;;;5053952;28;20047;-73
2024/02/09 10:23:15;;;;;;;7.55;1.65;;;11.10;99.90;;;;;;5077493;28;20041;-72
2024/02/09 10:25:43;;;;;;;5.53;1.88;;;11.30;99.90;;;;;;5048974;28;20170;-72
2024/02/09 10:28:09;;;;;;;7.13;1.52;;;11.40;99.90;;;;;;5069281;28;20032;-72
2024/02/09 10:30:35;;;;;;;5.70;1.40;;;11.60;99.90;;;;;;5049931;28;20063;-74
2024/02/09 10:33:01;;;;;;;5.38;1.67;;;11.80;99.90;;;;;;5051314;28;20037;-74
2024/02/09 10:35:27;;;;;;;6.65;1.50;;;11.90;99.90;;;;;;5068159;28;20029;-75
2024/02/09 10:37:57;;;;;;;4.88;1.95;;;12.00;99.90;;;;;;5047128;28;20037;-73
2024/02/09 10:40:23;;;;;;;7.53;1.25;;;12.10;99.90;;;;;;5048157;28;20123;-72
2024/02/09 10:42:51;;;;;;;2.58;1.02;;;12.10;99.90;;;;;;5049536;28;20179;-73
2024/02/09 10:45:17;;;;;;;8.27;1.00;;;12.10;99.90;;;;;;5030588;28;20114;-74
2024/02/09 10:47:46;;;;;;;4.45;1.27;;;12.10;99.90;;;;;;5028799;28;20045;-72
2024/02/09 10:50:14;;;;;;;6.72;2.03;;;12.00;99.90;;;;;;5027531;28;20521;-73
2024/02/09 10:52:43;;;;;;;6.30;0.98;;;12.00;99.90;;;;;;5026944;28;20045;-74
2024/02/09 10:55:10;;;;;;;4.35;1.63;;;12.00;99.90;;;;;;5040457;28;20044;-74
2024/02/09 10:57:36;;;;;;;2.63;0.70;;;12.10;99.90;;;;;;5041286;28;20419;-72
2024/02/09 11:00:03;;;;;;;5.53;1.33;;;12.00;99.90;;;;;;5044122;28;20039;-74
2024/02/09 11:02:35;;;;;;;3.22;0.60;;;12.00;99.90;;;;;;5038189;28;20059;-72
2024/02/09 11:05:01;;;;;;;2.75;1.33;;;11.90;99.90;;;;;;5026186;28;20025;-73
2024/02/09 11:07:28;;;;;;;1.70;0.60;;;11.80;99.90;;;;;;5041080;28;20401;-73
2024/02/09 11:09:54;;;;;;;2.50;0.80;;;11.80;99.90;;;;;;5047548;28;20315;-71
2024/02/09 11:12:19;;;;;;;5.35;1.13;;;11.80;99.90;;;;;;5052170;28;20037;-73
2024/02/09 11:14:45;;;;;;;6.15;1.25;;;11.70;99.90;;;;;;5050943;28;20124;-74
2024/02/09 11:17:15;;;;;;;3.25;1.48;;;11.60;99.90;;;;;;5041579;28;20037;-73
2024/02/09 11:19:41;;;;;;;3.03;0.70;;;11.60;99.90;;;;;;5042700;28;20033;-73
2024/02/09 11:22:09;;;;;;;4.10;1.30;;;11.50;99.90;;;;;;5038040;28;20069;-74
2024/02/09 11:24:35;;;;;;;3.45;1.38;;;11.50;99.90;;;;;;5044736;28;20034;-74
2024/02/09 11:27:02;;;;;;;4.28;1.35;;;11.50;99.90;;;;;;5042151;28;20044;-76
2024/02/09 11:29:28;;;;;;;9.02;2.55;;;11.50;99.90;;;;;;5041425;28;20029;-75
2024/02/09 11:31:57;;;;;;;5.93;1.25;;;11.40;99.90;;;;;;5043972;28;20043;-74
2024/02/09 11:34:24;;;;;;;6.35;1.45;;;11.30;99.90;;;;;;5042793;28;20039;-72
2024/02/09 11:36:50;;;;;;;8.02;1.20;;;11.30;99.90;;;;;;5043961;28;20091;-77
2024/02/09 11:39:22;;;;;;;5.80;2.22;;;11.30;99.90;;;;;;5035798;28;20028;-74
2024/02/09 11:41:49;;;;;;;7.28;1.95;;;11.20;99.90;;;;;;5037579;28;20037;-75
2024/02/09 11:44:14;;;;;;;3.20;1.45;;;11.20;99.90;;;;;;5042387;28;20033;-75
2024/02/09 11:46:41;;;;;;;4.30;1.20;;;11.10;99.90;;;;;;5041998;28;20410;-78
2024/02/09 11:49:07;;;;;;;4.13;1.50;;;11.00;99.90;;;;;;5043579;28;20037;-73
2024/02/09 11:51:34;;;;;;;4.55;1.65;;;11.10;99.90;;;;;;5043704;28;20083;-75
2024/02/09 11:54:01;;;;;;;7.00;1.55;;;11.10;99.90;;;;;;5043042;28;20051;-74
2024/02/09 11:56:26;;;;;;;4.50;1.35;;;11.10;99.90;;;;;;5036480;28;20079;-73
2024/02/09 11:58:52;;;;;;;4.15;1.80;;;11.10;99.90;;;;;;5040564;28;20033;-72
2024/02/09 12:01:22;;;;;;;6.13;1.58;;;11.10;99.90;;;;;;5040885;28;20064;-73
2024/02/09 12:03:48;;;;;;;7.38;1.70;;;11.10;99.90;;;;;;5043464;28;20117;-69
2024/02/09 12:06:14;;;;;;;8.45;1.70;;;11.10;99.90;;;;;;5046875;28;20033;-69
2024/02/09 12:08:40;;;;;;;7.22;2.05;;;11.10;99.90;;;;;;5042566;28;20920;-73
2024/02/09 12:11:05;;;;;;;7.03;1.73;;;11.20;99.90;;;;;;5038286;28;20032;-73
2024/02/09 12:13:31;;;;;;;3.80;1.83;;;11.20;99.90;;;;;;5040137;28;20029;-69
2024/02/09 12:15:57;;;;;;;11.60;3.22;;;11.20;99.90;;;;;;5061732;28;20522;-73
2024/02/09 12:18:23;;;;;;;1.92;1.20;;;11.30;99.90;;;;;;5049305;28;20037;-74
2024/02/09 12:20:49;;;;;;;9.32;1.70;;;11.30;99.90;;;;;;5058921;28;20028;-73
2024/02/09 12:23:15;;;;;;;8.57;1.55;;;11.30;99.90;;;;;;5049542;28;20036;-72
2024/02/09 12:25:40;;;;;;;4.50;1.42;;;11.30;99.90;;;;;;5042993;28;20033;-74
2024/02/09 12:28:10;;;;;;;4.55;0.95;;;11.30;99.90;;;;;;5055494;28;20048;-74
2024/02/09 12:30:37;;;;;;;4.03;0.93;;;11.30;99.90;;;;;;5047690;28;20186;-75
2024/02/09 12:33:04;;;;;;;7.07;1.08;;;11.20;99.90;;;;;;5062469;28;20052;-74
2024/02/09 12:35:31;;;;;;;3.83;1.00;;;11.20;99.90;;;;;;5040755;28;20035;-73
2024/02/09 12:37:57;;;;;;;3.58;0.70;;;11.30;99.90;;;;;;5041161;28;20070;-76
2024/02/09 12:40:25;;;;;;;6.07;0.90;;;11.30;99.90;;;;;;5045918;28;20036;-74
2024/02/09 12:42:53;;;;;;;3.88;1.00;;;11.30;99.90;;;;;;5066491;28;20040;-76
2024/02/09 12:45:26;;;;;;;6.50;1.13;;;11.30;99.90;;;;;;5059370;28;20032;-75
2024/02/09 12:47:52;;;;;;;3.90;1.73;;;11.30;99.90;;;;;;5048376;28;20523;-74
2024/02/09 12:50:20;;;;;;;2.30;0.75;;;11.40;99.90;;;;;;5048863;28;20121;-73
2024/02/09 12:52:47;;;;;;;11.20;1.73;;;11.50;99.90;;;;;;5049267;28;20885;-74
2024/02/09 12:55:15;;;;;;;3.83;0.73;;;11.60;99.90;;;;;;5055699;28;20036;-74
2024/02/09 12:57:40;;;;;;;7.38;1.38;;;11.60;99.90;;;;;;5045041;28;20045;-74
2024/02/09 13:00:10;;;;;;;3.08;0.82;;;11.70;99.90;;;;;;5044261;28;20043;-75
2024/02/09 13:02:36;;;;;;;4.03;0.73;;;11.70;99.90;;;;;;5046348;28;20028;-76
2024/02/09 13:05:01;;;;;;;5.40;0.70;;;11.80;99.90;;;;;;5046023;28;20055;-74
2024/02/09 13:07:27;;;;;;;7.93;1.38;;;11.90;99.90;;;;;;5042720;28;20547;-73
2024/02/09 13:09:55;;;;;;;7.93;1.17;;;11.90;99.90;;;;;;5045189;28;20032;-71
2024/02/09 13:12:21;;;;;;;8.75;0.70;;;11.90;99.90;;;;;;5035320;28;20041;-75
2024/02/09 13:14:47;;;;;;;4.65;0.90;;;11.90;99.90;;;;;;5041885;28;20082;-73
2024/02/09 13:17:13;;;;;;;4.25;0.80;;;12.00;99.90;;;;;;5046430;28;20041;-73
2024/02/09 13:19:39;;;;;;;6.95;0.68;;;12.00;99.90;;;;;;5042454;28;20058;-75
2024/02/09 13:22:08;;;;;;;2.75;0.90;;;12.00;99.90;;;;;;5055177;28;20614;-74
2024/02/09 13:24:39;;;;;;;4.40;0.80;;;12.00;99.90;;;;;;5046341;28;20024;-74
2024/02/09 13:27:06;;;;;;;2.75;0.60;;;12.00;99.90;;;;;;5060806;28;20072;-76
2024/02/09 13:29:32;;;;;;;4.32;1.33;;;12.00;99.90;;;;;;5046102;28;20044;-76
2024/02/09 13:31:59;;;;;;;2.88;0.60;;;12.10;99.90;;;;;;5058723;28;20035;-73
2024/02/09 13:34:24;;;;;;;3.95;0.70;;;12.00;99.90;;;;;;5044801;28;20033;-73
2024/02/09 13:36:50;;;;;;;3.05;0.47;;;12.20;99.90;;;;;;5061624;28;20035;-74
2024/02/09 13:39:16;;;;;;;5.50;0.50;;;12.20;99.90;;;;;;5061581;28;20020;-73
2024/02/09 13:41:45;;;;;;;3.25;0.45;;;12.20;99.90;;;;;;5062425;28;20028;-75
2024/02/09 13:44:13;;;;;;;2.90;0.40;;;12.20;99.90;;;;;;5047586;28;20051;-72
2024/02/09 13:46:39;;;;;;;1.40;0.38;;;12.20;99.90;;;;;;5047722;28;20580;-74
2024/02/09 13:49:04;;;;;;;1.98;0.28;;;12.30;99.90;;;;;;5062761;28;20032;-78
2024/02/09 13:51:31;;;;;;;1.88;0.25;;;12.30;99.90;;;;;;5049310;28;20040;-71
2024/02/09 13:53:56;;;;;;;3.47;0.70;;;12.30;99.90;;;;;;5048200;28;20500;-73
2024/02/09 13:56:22;;;;;;;2.28;0.40;;;12.30;99.90;;;;;;5064598;28;20075;-73
2024/02/09 13:58:48;;;;;;;2.75;0.60;;;12.20;99.90;;;;;;5048029;28;20485;-75
2024/02/09 14:01:14;;;;;;;5.05;0.77;;;12.20;99.90;;;;;;5068266;28;20032;-71
2024/02/09 14:03:41;;;;;;;2.35;1.05;;;12.20;99.90;;;;;;5062737;28;20520;-74
2024/02/09 14:06:07;;;;;;;4.50;0.70;;;12.30;99.90;;;;;;5067360;28;20032;-75
2024/02/09 14:08:33;;;;;;;1.13;0.40;;;12.30;99.90;;;;;;5051345;28;20111;-73
2024/02/09 14:10:59;;;;;;;4.22;0.70;;;12.40;99.90;;;;;;5049512;28;20100;-73
2024/02/09 14:13:24;;;;;;;2.72;0.43;;;12.40;99.90;;;;;;5065193;28;20699;-74
2024/02/09 14:15:50;;;;;;;2.65;0.65;;;12.40;99.90;;;;;;5064183;28;20041;-75
2024/02/09 14:18:18;;;;;;;5.75;0.90;;;12.50;99.90;;;;;;5055924;28;20032;-73
2024/02/09 14:20:46;;;;;;;11.65;2.20;;;12.40;99.90;;;;;;5050106;28;20028;-74
2024/02/09 14:23:12;;;;;;;2.55;0.88;;;12.40;99.90;;;;;;5062499;28;20112;-74
2024/02/09 14:25:38;;;;;;;4.65;0.57;;;12.50;99.90;;;;;;5048628;28;20029;-75
2024/02/09 14:28:08;;;;;;;3.42;1.15;;;12.50;99.90;;;;;;5058393;28;20036;-75
2024/02/09 14:30:33;;;;;;;3.13;0.50;;;12.50;99.90;;;;;;5064219;28;20036;-75
2024/02/09 14:33:00;;;;;;;3.90;0.80;;;12.40;99.90;;;;;;5046537;28;20028;-75
2024/02/09 14:35:26;;;;;;;4.38;0.70;;;12.40;99.90;;;;;;5067411;28;20072;-76